Time;durP1;ratioP1;P1;durP2;ratioP2;P2;SDS_P1;SDS_P2;PMS_P1;PMS_P2;Temp;Humidity;BMP_temperature;BMP_pressure;BME280_temperature;BME280_humidity;BME280_pressure;Samples;Min_cycle;Max_cycle;Signal;HPM_P1;HPM_P2
2023/09/27 00:01:00;;;;;;;7.10;6.50;;;14.70;99.90;;;;;;5066220;28;20291;-48
2023/09/27 00:03:28;;;;;;;6.90;6.30;;;14.70;99.90;;;;;;5061552;28;20199;-55
2023/09/27 00:05:55;;;;;;;7.20;6.63;;;14.70;99.90;;;;;;5064369;28;20203;-52
2023/09/27 00:08:22;;;;;;;7.07;6.43;;;14.70;99.90;;;;;;5041288;28;20209;-55
2023/09/27 00:10:49;;;;;;;6.83;6.33;;;14.60;99.90;;;;;;5060140;28;20276;-54
2023/09/27 00:13:17;;;;;;;7.23;6.73;;;14.60;99.90;;;;;;5058302;28;20210;-53
2023/09/27 00:15:44;;;;;;;8.93;8.13;;;14.60;99.90;;;;;;5047950;28;20200;-54
2023/09/27 00:18:12;;;;;;;7.63;6.93;;;14.60;99.90;;;;;;5063234;28;20435;-52
2023/09/27 00:20:40;;;;;;;8.07;7.27;;;14.60;99.90;;;;;;5062548;28;20760;-53
2023/09/27 00:23:08;;;;;;;8.03;7.40;;;14.60;99.90;;;;;;5063688;28;20203;-54
2023/09/27 00:25:36;;;;;;;7.47;6.87;;;14.60;99.90;;;;;;5034042;28;20201;-53
2023/09/27 00:28:03;;;;;;;7.63;6.93;;;14.60;99.90;;;;;;5062608;28;20222;-47
2023/09/27 00:30:30;;;;;;;6.73;6.23;;;14.50;99.90;;;;;;5048399;28;20198;-49
2023/09/27 00:32:57;;;;;;;8.50;7.80;;;14.50;99.90;;;;;;5065189;28;20194;-50
2023/09/27 00:35:23;;;;;;;8.30;7.60;;;14.50;99.90;;;;;;5064547;28;20744;-54
2023/09/27 00:37:52;;;;;;;7.50;6.80;;;14.50;99.90;;;;;;5065295;28;20257;-52
2023/09/27 00:40:22;;;;;;;9.57;8.67;;;;;;;;;;5040346;28;20202;-55
2023/09/27 00:42:49;;;;;;;8.83;8.00;;;14.30;99.90;;;;;;5061954;28;20225;-53
2023/09/27 00:45:18;;;;;;;8.13;7.47;;;14.40;99.90;;;;;;5055463;28;20201;-56
2023/09/27 00:47:46;;;;;;;8.67;7.97;;;14.30;99.90;;;;;;5054965;28;20330;-51
2023/09/27 00:50:13;;;;;;;8.07;7.27;;;14.30;99.90;;;;;;5066878;28;20197;-55
2023/09/27 00:52:42;;;;;;;7.83;7.23;;;14.30;99.90;;;;;;5063124;28;20895;-51
2023/09/27 00:55:13;;;;;;;8.43;7.83;;;14.30;99.90;;;;;;5064610;28;20210;-54
2023/09/27 00:57:41;;;;;;;7.17;6.57;;;14.20;99.90;;;;;;5046551;28;20310;-48
2023/09/27 01:00:10;;;;;;;8.03;7.33;;;14.20;99.90;;;;;;5049615;28;20254;-51
2023/09/27 01:02:39;;;;;;;7.70;7.10;;;14.10;99.90;;;;;;5064807;28;20277;-50
2023/09/27 01:05:09;;;;;;;8.50;7.80;;;14.10;99.90;;;;;;5060019;28;20199;-51
2023/09/27 01:07:38;;;;;;;8.03;7.33;;;14.00;99.90;;;;;;5061556;28;20221;-53
2023/09/27 01:10:07;;;;;;;10.07;8.07;;;14.00;99.90;;;;;;5066256;28;20194;-52
2023/09/27 01:12:36;;;;;;;8.83;8.03;;;13.90;99.90;;;;;;5033645;28;20190;-48
2023/09/27 01:15:04;;;;;;;8.63;7.93;;;13.90;99.90;;;;;;5064599;28;20199;-48
2023/09/27 01:17:30;;;;;;;8.30;7.60;;;13.90;99.90;;;;;;5029822;28;20223;-51
2023/09/27 01:19:57;;;;;;;8.87;8.03;;;13.90;99.90;;;;;;5055130;28;20214;-47
2023/09/27 01:22:24;;;;;;;9.73;7.80;;;13.80;99.90;;;;;;5049866;28;20199;-47
2023/09/27 01:24:54;;;;;;;8.50;7.80;;;13.80;99.90;;;;;;5059038;28;20244;-49
2023/09/27 01:27:22;;;;;;;8.27;7.47;;;13.80;99.90;;;;;;5030051;28;20248;-54
2023/09/27 01:29:49;;;;;;;9.97;8.97;;;13.70;99.90;;;;;;5061184;28;20210;-56
2023/09/27 01:32:15;;;;;;;8.90;8.20;;;13.80;99.90;;;;;;5055270;28;20238;-50
2023/09/27 01:34:43;;;;;;;8.13;7.43;;;13.80;99.90;;;;;;5062232;28;20205;-52
2023/09/27 01:37:10;;;;;;;8.80;8.10;;;13.70;99.90;;;;;;5055673;28;20230;-49
2023/09/27 01:39:38;;;;;;;8.67;7.83;;;13.70;99.90;;;;;;5064617;28;20191;-54
2023/09/27 01:42:06;;;;;;;9.27;8.00;;;13.70;99.90;;;;;;5031571;28;20702;-47
2023/09/27 01:44:33;;;;;;;8.57;7.77;;;13.60;99.90;;;;;;5064537;28;20617;-53
2023/09/27 01:47:01;;;;;;;9.27;8.47;;;13.60;99.90;;;;;;5052887;28;20227;-49
2023/09/27 01:49:27;;;;;;;8.13;7.53;;;13.50;99.90;;;;;;5064508;28;20195;-53
2023/09/27 01:51:54;;;;;;;9.00;8.20;;;13.50;99.90;;;;;;5061869;28;20214;-50
2023/09/27 01:54:21;;;;;;;11.90;10.80;;;13.50;99.90;;;;;;5066958;28;20202;-51
2023/09/27 01:56:48;;;;;;;9.27;8.57;;;13.50;99.90;;;;;;5062583;28;20222;-56
2023/09/27 01:59:17;;;;;;;9.00;8.20;;;13.60;99.90;;;;;;5041106;28;20207;-52
2023/09/27 02:01:44;;;;;;;9.47;8.57;;;13.50;99.90;;;;;;5055433;28;20214;-55
2023/09/27 02:04:11;;;;;;;8.63;7.93;;;13.50;99.90;;;;;;5066576;28;20193;-48
2023/09/27 02:06:38;;;;;;;10.17;8.53;;;13.50;99.90;;;;;;5068064;28;20233;-53
2023/09/27 02:09:05;;;;;;;9.20;8.50;;;13.40;99.90;;;;;;5066767;28;20351;-53
2023/09/27 02:11:31;;;;;;;8.90;8.20;;;13.40;99.90;;;;;;5067647;28;20202;-55
2023/09/27 02:13:58;;;;;;;9.10;8.30;;;13.40;99.90;;;;;;5033242;28;20211;-53
2023/09/27 02:16:26;;;;;;;9.70;8.83;;;13.40;99.90;;;;;;5064989;28;20218;-51
2023/09/27 02:18:58;;;;;;;9.23;8.27;;;13.30;99.90;;;;;;5051434;28;20289;-52
2023/09/27 02:21:24;;;;;;;9.40;8.50;;;13.30;99.90;;;;;;5064736;28;20241;-50
2023/09/27 02:23:51;;;;;;;10.30;9.30;;;13.30;99.90;;;;;;5062008;28;20973;-53
2023/09/27 02:26:18;;;;;;;9.47;8.67;;;13.30;99.90;;;;;;5066888;28;20218;-54
2023/09/27 02:28:45;;;;;;;9.00;8.30;;;13.20;99.90;;;;;;5041973;28;20205;-54
2023/09/27 02:31:12;;;;;;;9.50;8.80;;;13.20;99.90;;;;;;5062805;28;20195;-47
2023/09/27 02:33:40;;;;;;;10.00;9.10;;;13.20;99.90;;;;;;5054918;28;20198;-55
2023/09/27 02:36:08;;;;;;;9.83;8.83;;;13.20;99.90;;;;;;5062861;28;20190;-53
2023/09/27 02:38:36;;;;;;;9.17;8.43;;;13.30;99.90;;;;;;5064579;28;20730;-55
2023/09/27 02:41:04;;;;;;;9.00;8.27;;;13.20;99.90;;;;;;5062638;28;20309;-51
2023/09/27 02:43:31;;;;;;;9.90;9.00;;;13.20;99.90;;;;;;5064650;28;20747;-55
2023/09/27 02:45:57;;;;;;;9.30;8.53;;;13.20;99.90;;;;;;5030944;28;20264;-54
2023/09/27 02:48:25;;;;;;;8.87;7.80;;;13.20;99.90;;;;;;5063077;28;20194;-53
2023/09/27 02:50:53;;;;;;;9.03;8.30;;;13.10;99.90;;;;;;5060524;28;20182;-47
2023/09/27 02:53:20;;;;;;;10.03;9.23;;;13.10;99.90;;;;;;5065225;28;20206;-50
2023/09/27 02:55:48;;;;;;;9.70;8.80;;;13.10;99.90;;;;;;5060232;28;20266;-56
2023/09/27 02:58:16;;;;;;;9.30;8.40;;;13.10;99.90;;;;;;5058953;28;20218;-55
2023/09/27 03:00:43;;;;;;;10.20;9.23;;;13.00;99.90;;;;;;5033278;28;20223;-56
2023/09/27 03:03:13;;;;;;;9.00;8.17;;;13.00;99.90;;;;;;5054165;28;20273;-49
2023/09/27 03:05:40;;;;;;;8.73;8.03;;;12.90;99.90;;;;;;5068095;28;20206;-55
2023/09/27 03:08:10;;;;;;;8.83;8.03;;;12.90;99.90;;;;;;5065027;28;21604;-52
2023/09/27 03:10:40;;;;;;;8.87;7.97;;;12.80;99.90;;;;;;5058448;28;20191;-54
2023/09/27 03:13:08;;;;;;;9.10;8.30;;;12.80;99.90;;;;;;5063293;28;20423;-48
2023/09/27 03:15:35;;;;;;;9.20;8.40;;;12.70;99.90;;;;;;5057099;28;20205;-55
2023/09/27 03:18:02;;;;;;;9.40;8.37;;;12.70;99.90;;;;;;5025369;28;20290;-54
2023/09/27 03:20:31;;;;;;;9.27;8.47;;;12.70;99.90;;;;;;5064713;28;20201;-52
2023/09/27 03:22:58;;;;;;;9.30;8.50;;;12.70;99.90;;;;;;5063604;28;20876;-53
2023/09/27 03:25:26;;;;;;;8.80;7.77;;;12.70;99.90;;;;;;5068717;28;20210;-50
2023/09/27 03:27:54;;;;;;;9.30;8.40;;;12.70;99.90;;;;;;5049848;28;20596;-53
2023/09/27 03:30:21;;;;;;;9.30;8.50;;;12.60;99.90;;;;;;5062224;28;20249;-54
2023/09/27 03:32:48;;;;;;;9.10;8.30;;;12.60;99.90;;;;;;5027866;28;20214;-53
2023/09/27 03:35:14;;;;;;;10.30;9.03;;;12.60;99.90;;;;;;5046281;28;20220;-51
2023/09/27 03:37:44;;;;;;;9.37;8.30;;;12.60;99.90;;;;;;5063165;28;20221;-48
2023/09/27 03:40:13;;;;;;;9.33;8.50;;;12.60;99.90;;;;;;5052512;28;20211;-55
2023/09/27 03:42:43;;;;;;;9.30;8.53;;;12.50;99.90;;;;;;5064365;28;20222;-53
2023/09/27 03:45:11;;;;;;;9.03;7.33;;;12.60;99.90;;;;;;5058326;28;20263;-56
2023/09/27 03:47:38;;;;;;;8.83;8.03;;;12.50;99.90;;;;;;5031407;28;20225;-54
2023/09/27 03:50:06;;;;;;;8.77;7.80;;;12.50;99.90;;;;;;5049156;28;20199;-56
2023/09/27 03:52:33;;;;;;;9.20;8.40;;;12.50;99.90;;;;;;5061333;28;20366;-53
2023/09/27 03:55:01;;;;;;;11.07;7.67;;;12.50;99.90;;;;;;5064089;28;20204;-57
2023/09/27 03:57:27;;;;;;;9.37;8.57;;;12.40;99.90;;;;;;5060193;28;20210;-55
2023/09/27 03:59:57;;;;;;;9.20;8.40;;;12.50;99.90;;;;;;5066697;28;20194;-51
2023/09/27 04:02:23;;;;;;;8.77;7.97;;;12.50;99.90;;;;;;5027076;28;20219;-53
2023/09/27 04:04:50;;;;;;;8.67;7.73;;;12.50;99.90;;;;;;5053183;28;20198;-54
2023/09/27 04:07:19;;;;;;;8.40;7.60;;;12.50;99.90;;;;;;5050328;28;20969;-52
2023/09/27 04:09:46;;;;;;;7.83;7.13;;;12.40;99.90;;;;;;5061121;28;20205;-56
2023/09/27 04:12:13;;;;;;;9.37;8.47;;;12.40;99.90;;;;;;5042910;28;20206;-53
2023/09/27 04:14:40;;;;;;;10.23;9.17;;;12.40;99.90;;;;;;5064213;28;20195;-56
2023/09/27 04:17:08;;;;;;;9.23;8.53;;;12.40;99.90;;;;;;5043348;28;20299;-55
2023/09/27 04:19:35;;;;;;;8.93;8.13;;;12.30;99.90;;;;;;5024072;28;20217;-54
2023/09/27 04:22:02;;;;;;;9.67;8.77;;;12.30;99.90;;;;;;5054401;28;20246;-49
2023/09/27 04:24:29;;;;;;;9.30;8.50;;;12.30;99.90;;;;;;5062959;28;20182;-53
2023/09/27 04:26:56;;;;;;;10.70;9.80;;;12.40;99.90;;;;;;5059544;28;20280;-51
2023/09/27 04:29:23;;;;;;;10.00;9.03;;;12.40;99.90;;;;;;5065311;28;20276;-55
2023/09/27 04:31:50;;;;;;;10.00;9.10;;;12.30;99.90;;;;;;5056766;28;20206;-51
2023/09/27 04:34:18;;;;;;;10.40;9.50;;;12.30;99.90;;;;;;5027587;28;20202;-56
2023/09/27 04:36:45;;;;;;;10.17;9.17;;;12.20;99.90;;;;;;5050987;28;21065;-52
2023/09/27 04:39:16;;;;;;;12.07;10.83;;;12.30;99.90;;;;;;5058700;28;20240;-55
2023/09/27 04:41:46;;;;;;;11.63;10.43;;;12.30;99.90;;;;;;5062246;28;21006;-52
2023/09/27 04:44:13;;;;;;;11.67;10.07;;;12.20;99.90;;;;;;5051990;28;20440;-54
2023/09/27 04:46:40;;;;;;;10.83;9.83;;;12.20;99.90;;;;;;5051127;28;20215;-52
2023/09/27 04:49:06;;;;;;;10.97;9.83;;;12.20;99.90;;;;;;5030694;28;20648;-53
2023/09/27 04:51:35;;;;;;;11.07;9.97;;;12.20;99.90;;;;;;5038420;28;20241;-52
2023/09/27 04:54:03;;;;;;;10.43;9.40;;;12.10;99.90;;;;;;5063710;28;20202;-51
2023/09/27 04:56:31;;;;;;;10.63;9.60;;;12.10;99.90;;;;;;5060243;28;20214;-52
2023/09/27 04:59:01;;;;;;;10.90;9.77;;;12.00;99.90;;;;;;5055312;28;20198;-54
2023/09/27 05:01:28;;;;;;;10.20;9.20;;;11.90;99.90;;;;;;5055549;28;20219;-49
2023/09/27 05:03:54;;;;;;;10.33;9.10;;;11.90;99.90;;;;;;5046252;28;20248;-54
2023/09/27 05:06:21;;;;;;;10.53;9.43;;;12.00;99.90;;;;;;5046602;28;20217;-53
2023/09/27 05:08:50;;;;;;;9.63;8.73;;;12.00;99.90;;;;;;5052959;28;20203;-54
2023/09/27 05:11:18;;;;;;;9.77;8.87;;;11.90;99.90;;;;;;5062779;28;20242;-50
2023/09/27 05:13:45;;;;;;;9.80;8.80;;;11.80;99.90;;;;;;5055584;28;20287;-53
2023/09/27 05:16:12;;;;;;;11.77;9.37;;;11.80;99.90;;;;;;5060865;28;20240;-48
2023/09/27 05:18:39;;;;;;;10.23;9.10;;;11.90;99.90;;;;;;5057483;28;20205;-56
2023/09/27 05:21:06;;;;;;;10.40;9.50;;;11.90;99.90;;;;;;5028996;28;20960;-49
2023/09/27 05:23:33;;;;;;;10.17;9.23;;;11.90;99.90;;;;;;5056681;28;20222;-53
2023/09/27 05:26:02;;;;;;;10.70;9.60;;;11.90;99.90;;;;;;5049958;28;20274;-55
2023/09/27 05:28:29;;;;;;;10.10;9.20;;;11.90;99.90;;;;;;5064589;28;20618;-53
2023/09/27 05:30:56;;;;;;;10.73;9.70;;;11.90;99.90;;;;;;5044928;28;20662;-52
2023/09/27 05:33:24;;;;;;;10.00;8.97;;;11.90;99.90;;;;;;5051998;28;20207;-48
2023/09/27 05:35:51;;;;;;;10.57;9.47;;;11.80;99.90;;;;;;5026482;28;20210;-53
2023/09/27 05:38:18;;;;;;;11.03;9.97;;;11.80;99.90;;;;;;5057609;28;20287;-53
2023/09/27 05:40:45;;;;;;;10.90;9.80;;;11.90;99.90;;;;;;5052531;28;20199;-54
2023/09/27 05:43:14;;;;;;;10.27;9.27;;;11.90;99.90;;;;;;5057812;28;20222;-49
2023/09/27 05:45:41;;;;;;;10.30;9.40;;;11.90;99.90;;;;;;5045248;28;20551;-51
2023/09/27 05:48:08;;;;;;;10.00;9.00;;;11.90;99.90;;;;;;5042661;28;20779;-48
2023/09/27 05:50:35;;;;;;;10.77;9.57;;;11.80;99.90;;;;;;5027451;28;20229;-49
2023/09/27 05:53:02;;;;;;;10.10;8.90;;;11.90;99.90;;;;;;5051013;28;20199;-52
2023/09/27 05:55:29;;;;;;;10.30;9.27;;;11.90;99.90;;;;;;5059068;28;20672;-48
2023/09/27 05:57:56;;;;;;;11.50;9.50;;;11.90;99.90;;;;;;5064916;28;21141;-51
2023/09/27 06:00:26;;;;;;;13.00;10.87;;;11.90;99.90;;;;;;5069421;28;20259;-50
2023/09/27 06:02:53;;;;;;;11.63;10.53;;;11.90;99.90;;;;;;5052027;28;20598;-55
2023/09/27 06:05:21;;;;;;;12.20;10.40;;;12.10;99.90;;;;;;5029056;28;20211;-52
2023/09/27 06:07:48;;;;;;;11.33;10.33;;;12.10;99.90;;;;;;5052190;28;20226;-54
2023/09/27 06:10:16;;;;;;;12.33;11.10;;;12.20;99.90;;;;;;5043695;28;20186;-47
2023/09/27 06:12:43;;;;;;;12.57;11.47;;;12.30;99.90;;;;;;5064702;28;20233;-51
2023/09/27 06:15:12;;;;;;;13.57;11.67;;;12.30;99.90;;;;;;5066789;28;20195;-50
2023/09/27 06:17:40;;;;;;;13.57;12.17;;;12.40;99.90;;;;;;5062423;28;20222;-55
2023/09/27 06:20:11;;;;;;;13.23;11.83;;;12.40;99.90;;;;;;5048347;28;20216;-49
2023/09/27 06:22:38;;;;;;;12.80;11.47;;;12.50;99.90;;;;;;5020898;28;20219;-51
2023/09/27 06:25:06;;;;;;;14.33;12.47;;;12.60;99.90;;;;;;5048667;28;20199;-48
2023/09/27 06:27:34;;;;;;;17.67;13.33;;;12.60;99.90;;;;;;5067443;28;20217;-53
2023/09/27 06:30:01;;;;;;;14.40;12.80;;;12.70;99.90;;;;;;5066013;28;20194;-49
2023/09/27 06:32:28;;;;;;;15.07;13.60;;;12.80;99.90;;;;;;5064617;28;20195;-51
2023/09/27 06:34:57;;;;;;;12.90;11.73;;;12.80;99.90;;;;;;5048386;28;20226;-50
2023/09/27 06:37:23;;;;;;;14.23;12.43;;;12.90;99.90;;;;;;5029160;28;20960;-48
2023/09/27 06:39:50;;;;;;;13.90;12.60;;;13.00;99.90;;;;;;5054578;28;20202;-49
2023/09/27 06:42:19;;;;;;;15.30;12.80;;;13.00;99.90;;;;;;5052061;28;20214;-53
2023/09/27 06:44:45;;;;;;;13.97;12.63;;;13.10;99.90;;;;;;5064550;28;20257;-50
2023/09/27 06:47:12;;;;;;;15.07;13.63;;;13.20;99.90;;;;;;5062019;28;20280;-52
2023/09/27 06:49:39;;;;;;;13.93;12.63;;;13.30;99.90;;;;;;5053605;28;20214;-49
2023/09/27 06:52:07;;;;;;;14.47;12.40;;;13.40;99.90;;;;;;5024480;28;20293;-47
2023/09/27 06:54:34;;;;;;;14.03;12.53;;;13.40;99.90;;;;;;5053058;28;20207;-55
2023/09/27 06:57:01;;;;;;;14.23;12.83;;;13.50;99.90;;;;;;5040114;28;20974;-51
2023/09/27 06:59:28;;;;;;;14.83;13.33;;;13.60;99.90;;;;;;5064494;28;20679;-48
2023/09/27 07:01:55;;;;;;;12.67;11.30;;;13.70;99.90;;;;;;5059759;28;20206;-49
2023/09/27 07:04:22;;;;;;;12.17;11.07;;;13.80;99.90;;;;;;5062509;28;20198;-48
2023/09/27 07:06:49;;;;;;;13.07;11.77;;;13.80;99.90;;;;;;5016594;28;20227;-55
2023/09/27 07:09:20;;;;;;;12.77;11.37;;;13.80;99.90;;;;;;5059283;28;20201;-51
2023/09/27 07:11:48;;;;;;;11.37;10.37;;;13.90;99.90;;;;;;5017207;28;20832;-49
2023/09/27 07:14:17;;;;;;;15.37;12.43;;;14.00;99.90;;;;;;5050011;28;20194;-49
2023/09/27 07:16:46;;;;;;;14.27;12.80;;;14.10;99.90;;;;;;5051502;28;20214;-49
2023/09/27 07:19:13;;;;;;;15.43;12.63;;;14.20;99.90;;;;;;5063089;28;20195;-49
2023/09/27 07:21:40;;;;;;;15.53;13.93;;;14.40;99.90;;;;;;5042346;28;20187;-48
2023/09/27 07:24:09;;;;;;;15.30;13.80;;;14.50;99.90;;;;;;5040571;28;20287;-48
2023/09/27 07:26:38;;;;;;;14.27;12.87;;;14.60;99.90;;;;;;5055737;28;20239;-53
2023/09/27 07:29:07;;;;;;;13.53;11.50;;;14.60;99.90;;;;;;5046462;28;20564;-49
2023/09/27 07:31:35;;;;;;;13.87;12.47;;;14.70;99.90;;;;;;5050872;28;20905;-52
2023/09/27 07:34:02;;;;;;;15.47;12.97;;;14.80;99.90;;;;;;5064591;28;20236;-49
2023/09/27 07:36:29;;;;;;;10.10;9.10;;;14.90;99.90;;;;;;5051904;28;20229;-54
2023/09/27 07:38:57;;;;;;;12.20;10.97;;;15.00;99.90;;;;;;5022843;28;20840;-53
2023/09/27 07:41:25;;;;;;;11.30;10.20;;;15.20;99.90;;;;;;5064215;28;20281;-54
2023/09/27 07:43:54;;;;;;;14.63;13.27;;;15.20;99.90;;;;;;5037671;28;20218;-50
2023/09/27 07:46:21;;;;;;;13.83;12.53;;;15.30;99.90;;;;;;5049035;28;20223;-54
2023/09/27 07:48:48;;;;;;;15.43;12.43;;;15.40;99.90;;;;;;5051498;28;20190;-49
2023/09/27 07:51:18;;;;;;;14.97;11.00;;;15.50;99.90;;;;;;5064768;28;20259;-51
2023/09/27 07:53:45;;;;;;;12.77;11.50;;;15.70;99.90;;;;;;5044109;28;20281;-49
2023/09/27 07:56:20;;;;;;;12.63;11.40;;;15.80;99.90;;;;;;5032788;28;20561;-49
2023/09/27 07:58:47;;;;;;;9.23;8.47;;;15.90;99.90;;;;;;5049499;28;20198;-52
2023/09/27 08:01:20;;;;;;;11.87;9.40;;;16.00;99.90;;;;;;5053770;28;20195;-50
2023/09/27 08:03:48;;;;;;;9.93;9.03;;;16.20;99.90;;;;;;5046211;28;20207;-52
2023/09/27 08:06:16;;;;;;;11.47;9.47;;;16.20;99.90;;;;;;5058039;28;20273;-50
2023/09/27 08:08:43;;;;;;;12.83;10.90;;;16.30;99.90;;;;;;5038821;28;20936;-49
2023/09/27 08:11:13;;;;;;;12.37;11.07;;;16.40;99.90;;;;;;5030526;28;20214;-48
2023/09/27 08:13:40;;;;;;;12.23;10.97;;;16.50;99.90;;;;;;5047282;28;20897;-52
2023/09/27 08:16:07;;;;;;;12.80;11.47;;;16.60;99.90;;;;;;5046078;28;20680;-51
2023/09/27 08:18:37;;;;;;;11.97;10.67;;;16.80;99.90;;;;;;5046090;28;20719;-50
2023/09/27 08:21:04;;;;;;;12.57;10.60;;;16.90;99.90;;;;;;5053552;28;20244;-52
2023/09/27 08:23:31;;;;;;;12.43;11.13;;;17.00;99.90;;;;;;5042010;28;20226;-52
2023/09/27 08:25:58;;;;;;;13.10;11.43;;;17.20;99.90;;;;;;5032893;28;20215;-54
2023/09/27 08:28:25;;;;;;;14.27;10.90;;;17.30;99.90;;;;;;5057699;28;20205;-52
2023/09/27 08:30:58;;;;;;;11.77;10.23;;;17.40;99.90;;;;;;5041088;28;20206;-54
2023/09/27 08:33:25;;;;;;;11.50;8.53;;;17.50;99.90;;;;;;5049772;28;20197;-54
2023/09/27 08:35:53;;;;;;;12.13;9.13;;;17.50;99.90;;;;;;5063482;28;20193;-53
2023/09/27 08:38:20;;;;;;;10.67;9.67;;;17.60;99.90;;;;;;5055684;28;20288;-50
2023/09/27 08:40:48;;;;;;;12.03;10.80;;;17.70;99.90;;;;;;5045917;28;20207;-53
2023/09/27 08:43:16;;;;;;;10.53;9.33;;;17.90;99.90;;;;;;5066934;28;20221;-49
2023/09/27 08:45:45;;;;;;;9.57;8.33;;;17.90;99.90;;;;;;5054785;28;20210;-52
2023/09/27 08:48:18;;;;;;;10.33;9.27;;;18.10;99.90;;;;;;5057896;28;20310;-49
2023/09/27 08:50:46;;;;;;;14.37;9.40;;;18.20;99.90;;;;;;5059355;28;20198;-53
2023/09/27 08:53:14;;;;;;;9.60;8.70;;;18.30;99.90;;;;;;5050729;28;20229;-48
2023/09/27 08:55:44;;;;;;;10.13;9.13;;;18.40;99.90;;;;;;5053489;28;20646;-53
2023/09/27 08:58:12;;;;;;;10.90;8.00;;;18.60;99.90;;;;;;5028941;28;20218;-48
2023/09/27 09:00:41;;;;;;;7.63;6.93;;;18.60;99.90;;;;;;5043628;28;20207;-49
2023/09/27 09:03:08;;;;;;;9.80;8.80;;;18.80;99.90;;;;;;5057663;28;20211;-53
2023/09/27 09:05:37;;;;;;;11.87;9.07;;;18.90;99.90;;;;;;5053391;28;20190;-49
2023/09/27 09:08:05;;;;;;;9.20;8.30;;;19.00;99.90;;;;;;5059015;28;20295;-52
2023/09/27 09:10:33;;;;;;;9.57;7.77;;;19.10;99.90;;;;;;5045058;28;20199;-52
2023/09/27 09:13:01;;;;;;;8.30;7.57;;;19.20;99.90;;;;;;5031901;28;20199;-50
2023/09/27 09:15:29;;;;;;;9.40;7.13;;;19.30;99.90;;;;;;5051731;28;20888;-50
2023/09/27 09:17:58;;;;;;;8.10;6.47;;;19.40;99.90;;;;;;5062870;28;20613;-49
2023/09/27 09:20:32;;;;;;;8.03;7.07;;;19.50;99.90;;;;;;5046052;28;20198;-53
2023/09/27 09:23:03;;;;;;;10.47;7.20;;;19.60;99.90;;;;;;5052786;28;20245;-48
2023/09/27 09:25:31;;;;;;;6.67;5.93;;;19.70;99.90;;;;;;5048538;28;20226;-50
2023/09/27 09:28:04;;;;;;;9.87;5.63;;;19.80;99.90;;;;;;5061267;28;20246;-48
2023/09/27 09:30:35;;;;;;;8.30;6.33;;;19.90;99.90;;;;;;5022773;28;20469;-54
2023/09/27 09:33:03;;;;;;;6.20;5.63;;;20.00;99.90;;;;;;5064584;28;20186;-51
2023/09/27 09:35:33;;;;;;;4.90;4.50;;;20.10;99.90;;;;;;5041759;28;20207;-52
2023/09/27 09:38:03;;;;;;;6.93;5.40;;;20.10;99.90;;;;;;5054498;28;20222;-53
2023/09/27 09:40:30;;;;;;;8.00;5.53;;;20.20;99.90;;;;;;5050325;28;20272;-48
2023/09/27 09:42:59;;;;;;;5.47;4.97;;;20.30;99.90;;;;;;5056043;28;20225;-54
2023/09/27 09:45:29;;;;;;;5.03;4.53;;;20.50;99.90;;;;;;5029196;28;20233;-52
2023/09/27 09:47:57;;;;;;;5.03;4.63;;;20.80;99.90;;;;;;5053690;28;20302;-50
2023/09/27 09:50:26;;;;;;;6.67;5.40;;;20.80;99.90;;;;;;5044100;28;20195;-50
2023/09/27 09:52:55;;;;;;;5.28;4.55;;;20.80;99.90;;;;;;5062791;28;20195;-52
2023/09/27 09:55:24;;;;;;;4.20;3.67;;;20.80;99.90;;;;;;5052984;28;20681;-54
2023/09/27 09:57:57;;;;;;;6.25;3.65;;;20.90;99.90;;;;;;5054877;28;20237;-50
2023/09/27 10:00:27;;;;;;;5.60;3.90;;;21.00;99.90;;;;;;5023505;28;20202;-51
2023/09/27 10:03:02;;;;;;;4.63;4.18;;;21.10;99.90;;;;;;5053361;28;20202;-52
2023/09/27 10:05:36;;;;;;;4.97;4.25;;;21.10;99.90;;;;;;5053116;28;20197;-48
2023/09/27 10:08:04;;;;;;;4.35;3.97;;;21.20;99.90;;;;;;5062611;28;20236;-52
2023/09/27 10:10:32;;;;;;;5.45;4.10;;;21.30;99.90;;;;;;5051212;28;20187;-51
2023/09/27 10:13:01;;;;;;;4.32;3.70;;;21.40;99.90;;;;;;5056721;28;20194;-51
2023/09/27 10:15:33;;;;;;;7.15;3.72;;;21.50;99.90;;;;;;5020887;28;20287;-48
2023/09/27 10:18:30;;;;;;;6.65;3.88;;;21.50;99.90;;;;;;5052240;28;20686;-49
2023/09/27 10:21:06;;;;;;;8.02;4.25;;;21.60;99.90;;;;;;5059492;28;20263;-48
2023/09/27 10:23:37;;;;;;;3.60;3.28;;;21.70;99.90;;;;;;5043770;28;20287;-51
2023/09/27 10:26:20;;;;;;;4.63;2.90;;;21.70;99.90;;;;;;5060748;28;20199;-49
2023/09/27 10:29:13;;;;;;;5.35;4.03;;;21.80;99.90;;;;;;5053537;28;20626;-52
2023/09/27 10:32:20;;;;;;;4.55;3.35;;;21.80;99.90;;;;;;5021319;28;20201;-52
2023/09/27 10:34:48;;;;;;;5.13;3.22;;;21.80;99.90;;;;;;5060840;28;20195;-51
2023/09/27 10:37:16;;;;;;;6.97;3.63;;;21.80;99.90;;;;;;5053235;28;20685;-54
2023/09/27 10:40:19;;;;;;;3.60;3.30;;;21.80;99.90;;;;;;5053290;28;20213;-47
2023/09/27 10:42:46;;;;;;;4.80;3.63;;;21.80;99.90;;;;;;5058493;28;20210;-54
2023/09/27 10:45:12;;;;;;;6.22;3.17;;;21.80;99.90;;;;;;5054992;28;20243;-54
2023/09/27 10:47:40;;;;;;;4.32;3.63;;;21.80;99.90;;;;;;5026229;28;20214;-48
2023/09/27 10:50:10;;;;;;;3.20;2.90;;;21.80;99.90;;;;;;5052133;28;20350;-52
2023/09/27 10:52:39;;;;;;;4.55;2.90;;;21.80;99.90;;;;;;5052531;28;20211;-51
2023/09/27 10:55:10;;;;;;;3.70;2.60;;;21.90;99.90;;;;;;5062916;28;20248;-49
2023/09/27 10:57:39;;;;;;;3.38;2.65;;;21.90;99.90;;;;;;5052496;28;20305;-51
2023/09/27 11:00:09;;;;;;;4.53;2.83;;;21.90;99.90;;;;;;5052877;28;20304;-53
2023/09/27 11:02:36;;;;;;;3.45;2.90;;;22.00;99.90;;;;;;5019928;28;20207;-51
2023/09/27 11:05:03;;;;;;;5.93;3.97;;;22.00;99.90;;;;;;5052325;28;20215;-53
2023/09/27 11:07:45;;;;;;;6.75;3.38;;;22.10;99.90;;;;;;5060510;28;20888;-52
2023/09/27 11:10:19;;;;;;;3.17;2.85;;;22.10;99.90;;;;;;5054177;28;20290;-52
2023/09/27 11:12:46;;;;;;;3.63;2.90;;;22.10;99.90;;;;;;5053736;28;20217;-51
2023/09/27 11:15:23;;;;;;;4.50;3.42;;;22.10;99.90;;;;;;5053057;28;20194;-53
2023/09/27 11:17:55;;;;;;;4.30;3.88;;;22.10;99.90;;;;;;5025619;28;20240;-53
2023/09/27 11:20:23;;;;;;;7.68;4.50;;;22.10;99.90;;;;;;5050395;28;20575;-50
2023/09/27 11:22:58;;;;;;;5.20;4.35;;;22.10;99.90;;;;;;5062455;28;20207;-53
2023/09/27 11:25:29;;;;;;;6.25;3.92;;;22.10;99.90;;;;;;5049942;28;20190;-54
2023/09/27 11:27:56;;;;;;;7.05;3.83;;;22.20;99.90;;;;;;5053673;28;20223;-52
2023/09/27 11:30:28;;;;;;;3.90;3.50;;;22.30;99.90;;;;;;5051448;28;20186;-54
2023/09/27 11:32:56;;;;;;;4.07;2.80;;;22.40;99.90;;;;;;5020271;28;20288;-49
2023/09/27 11:35:25;;;;;;;3.83;2.95;;;22.50;99.90;;;;;;5052469;28;20226;-53
2023/09/27 11:38:13;;;;;;;5.35;4.20;;;22.50;99.90;;;;;;5058900;28;20221;-54
2023/09/27 11:40:42;;;;;;;9.27;4.20;;;22.60;99.90;;;;;;5051993;28;20274;-51
2023/09/27 11:43:09;;;;;;;6.50;3.92;;;22.60;99.90;;;;;;5048555;28;20600;-54
2023/09/27 11:45:47;;;;;;;5.88;4.07;;;22.60;99.90;;;;;;5049255;28;21064;-50
2023/09/27 11:48:14;;;;;;;5.68;4.22;;;22.60;99.90;;;;;;5013145;28;20335;-51
2023/09/27 11:50:41;;;;;;;4.30;3.90;;;22.50;99.90;;;;;;5060985;28;20194;-49
2023/09/27 11:53:10;;;;;;;6.82;3.80;;;22.60;99.90;;;;;;5036278;28;20256;-49
2023/09/27 11:55:37;;;;;;;4.72;3.63;;;22.60;99.90;;;;;;5039729;28;20869;-48
2023/09/27 11:58:04;;;;;;;3.95;3.58;;;22.60;99.90;;;;;;5056929;28;20229;-50
2023/09/27 12:00:32;;;;;;;4.07;3.38;;;22.60;99.90;;;;;;5040922;28;20641;-52
2023/09/27 12:02:59;;;;;;;3.42;3.00;;;22.60;99.90;;;;;;5053951;28;20653;-48
2023/09/27 12:05:26;;;;;;;5.22;3.28;;;22.70;99.90;;;;;;5033085;28;20221;-52
2023/09/27 12:07:53;;;;;;;6.43;4.05;;;22.80;99.90;;;;;;5049789;28;20242;-48
2023/09/27 12:10:21;;;;;;;6.05;3.95;;;22.80;99.90;;;;;;5056908;28;20607;-52
2023/09/27 12:12:49;;;;;;;4.63;3.65;;;22.80;99.90;;;;;;5053086;28;23198;-51
2023/09/27 12:15:16;;;;;;;5.25;2.92;;;22.80;99.90;;;;;;5052091;28;20198;-54
2023/09/27 12:17:42;;;;;;;3.97;3.53;;;22.80;99.90;;;;;;5042121;28;20315;-49
2023/09/27 12:20:13;;;;;;;4.93;3.55;;;22.80;99.90;;;;;;5030352;28;20202;-53
2023/09/27 12:22:40;;;;;;;4.65;3.50;;;22.80;99.90;;;;;;5049965;28;20207;-51
2023/09/27 12:25:07;;;;;;;4.00;3.25;;;22.90;99.90;;;;;;5058142;28;20222;-49
2023/09/27 12:27:36;;;;;;;4.32;3.78;;;22.90;99.90;;;;;;5058769;28;20295;-48
2023/09/27 12:30:03;;;;;;;5.18;3.38;;;23.10;99.90;;;;;;5043470;28;20198;-53
2023/09/27 12:32:30;;;;;;;4.85;3.60;;;23.20;99.90;;;;;;5052039;28;20198;-55
2023/09/27 12:34:57;;;;;;;5.95;3.38;;;23.30;99.90;;;;;;5023042;28;20668;-49
2023/09/27 12:37:24;;;;;;;5.45;3.33;;;23.30;99.90;;;;;;5054456;28;20260;-53
2023/09/27 12:39:50;;;;;;;4.13;3.80;;;23.30;99.90;;;;;;5057431;28;20264;-48
2023/09/27 12:42:17;;;;;;;4.07;3.55;;;23.40;99.90;;;;;;5051975;28;20214;-53
2023/09/27 12:44:45;;;;;;;4.70;3.50;;;23.50;99.90;;;;;;5046336;28;20218;-49
2023/09/27 12:47:14;;;;;;;6.80;3.55;;;23.50;99.90;;;;;;5053314;28;20222;-47